sensor_id;sensor_type;location;lat;lon;timestamp;pressure;altitude;pressure_sealevel;temperature;humidity
37132;BME280;23035;50.032;21.978;2022-07-29T00:04:06;67227.19;;;19.48;93.63
37132;BME280;23035;50.032;21.978;2022-07-29T00:09:10;67186.72;;;19.10;95.38
37132;BME280;23035;50.032;21.978;2022-07-29T00:14:14;67184.00;;;19.08;92.85
37132;BME280;23035;50.032;21.978;2022-07-29T00:19:20;67225.50;;;19.44;90.42
37132;BME280;23035;50.032;21.978;2022-07-29T00:24:24;67201.34;;;19.27;91.62
37132;BME280;23035;50.032;21.978;2022-07-29T00:29:28;67217.53;;;19.42;91.08
37132;BME280;23035;50.032;21.978;2022-07-29T00:34:37;67240.28;;;19.66;87.70
37132;BME280;23035;50.032;21.978;2022-07-29T00:39:59;67164.63;;;18.92;92.24
37132;BME280;23035;50.032;21.978;2022-07-29T00:45:04;67180.81;;;19.07;92.04
37132;BME280;23035;50.032;21.978;2022-07-29T00:50:10;67162.97;;;18.88;93.43
37132;BME280;23035;50.032;21.978;2022-07-29T00:55:16;67200.19;;;19.23;91.17
37132;BME280;23035;50.032;21.978;2022-07-29T01:00:22;67211.53;;;19.34;89.13
37132;BME280;23035;50.032;21.978;2022-07-29T01:05:28;67203.50;;;19.29;87.07
37132;BME280;23035;50.032;21.978;2022-07-29T01:10:53;67152.78;;;18.81;91.32
37132;BME280;23035;50.032;21.978;2022-07-29T01:16:01;67128.94;;;18.56;92.68
37132;BME280;23035;50.032;21.978;2022-07-29T01:21:24;67153.78;;;18.79;90.49
37132;BME280;23035;50.032;21.978;2022-07-29T01:26:37;67131.66;;;18.58;91.65
37132;BME280;23035;50.032;21.978;2022-07-29T01:31:51;67107.41;;;18.38;94.79
37132;BME280;23035;50.032;21.978;2022-07-29T01:37:07;67094.34;;;18.21;95.30
37132;BME280;23035;50.032;21.978;2022-07-29T01:42:18;67083.16;;;18.15;95.18
37132;BME280;23035;50.032;21.978;2022-07-29T01:47:31;67091.78;;;18.23;94.74
37132;BME280;23035;50.032;21.978;2022-07-29T01:52:41;67110.59;;;18.39;95.06
37132;BME280;23035;50.032;21.978;2022-07-29T01:57:49;67118.22;;;18.48;92.90
37132;BME280;23035;50.032;21.978;2022-07-29T02:02:55;67120.28;;;18.48;93.88
37132;BME280;23035;50.032;21.978;2022-07-29T02:08:01;67102.03;;;18.33;94.08
37132;BME280;23035;50.032;21.978;2022-07-29T02:13:05;67109.50;;;18.38;93.77
37132;BME280;23035;50.032;21.978;2022-07-29T02:18:14;67135.50;;;18.65;91.90
37132;BME280;23035;50.032;21.978;2022-07-29T02:23:20;67115.94;;;18.41;93.30
37132;BME280;23035;50.032;21.978;2022-07-29T02:28:27;67080.47;;;18.13;94.38
37132;BME280;23035;50.032;21.978;2022-07-29T02:33:33;67097.56;;;18.24;94.70
37132;BME280;23035;50.032;21.978;2022-07-29T02:38:40;67090.16;;;18.22;91.28
37132;BME280;23035;50.032;21.978;2022-07-29T02:43:56;67093.34;;;18.22;88.60
37132;BME280;23035;50.032;21.978;2022-07-29T02:49:08;67090.09;;;18.19;87.93
37132;BME280;23035;50.032;21.978;2022-07-29T02:54:23;67067.59;;;18.03;90.61
37132;BME280;23035;50.032;21.978;2022-07-29T02:59:30;67042.16;;;17.76;92.55
37132;BME280;23035;50.032;21.978;2022-07-29T03:04:41;67025.44;;;17.61;92.96
37132;BME280;23035;50.032;21.978;2022-07-29T03:09:47;67062.59;;;17.93;88.83
37132;BME280;23035;50.032;21.978;2022-07-29T03:14:52;67037.31;;;17.72;90.15
37132;BME280;23035;50.032;21.978;2022-07-29T03:19:58;67081.38;;;18.09;88.37
37132;BME280;23035;50.032;21.978;2022-07-29T03:25:07;67073.44;;;18.06;89.35
37132;BME280;23035;50.032;21.978;2022-07-29T03:30:12;67093.41;;;18.25;88.25
37132;BME280;23035;50.032;21.978;2022-07-29T03:35:25;67012.34;;;17.43;93.24
37132;BME280;23035;50.032;21.978;2022-07-29T03:40:32;67007.03;;;17.41;92.26
37132;BME280;23035;50.032;21.978;2022-07-29T03:45:38;67019.44;;;17.53;90.05
37132;BME280;23035;50.032;21.978;2022-07-29T03:50:45;67029.75;;;17.65;92.10
37132;BME280;23035;50.032;21.978;2022-07-29T03:55:52;67088.47;;;18.18;89.23
37132;BME280;23035;50.032;21.978;2022-07-29T04:00:57;67117.75;;;18.50;86.30
37132;BME280;23035;50.032;21.978;2022-07-29T04:06:04;67157.50;;;18.80;84.08
37132;BME280;23035;50.032;21.978;2022-07-29T04:11:09;67146.75;;;18.73;84.74
37132;BME280;23035;50.032;21.978;2022-07-29T04:16:13;67131.16;;;18.60;83.77
37132;BME280;23035;50.032;21.978;2022-07-29T04:21:18;67224.56;;;19.48;78.69
37132;BME280;23035;50.032;21.978;2022-07-29T04:26:22;67198.56;;;19.22;78.19
37132;BME280;23035;50.032;21.978;2022-07-29T04:31:25;67177.59;;;19.04;78.84
37132;BME280;23035;50.032;21.978;2022-07-29T04:36:31;67198.56;;;19.22;76.31
37132;BME280;23035;50.032;21.978;2022-07-29T04:41:34;67108.97;;;18.37;82.26
37132;BME280;23035;50.032;21.978;2022-07-29T04:46:39;67180.81;;;19.07;76.67
37132;BME280;23035;50.032;21.978;2022-07-29T04:51:44;67058.25;;;17.89;82.17
37132;BME280;23035;50.032;21.978;2022-07-29T04:56:48;67117.66;;;18.48;81.44
37132;BME280;23035;50.032;21.978;2022-07-29T05:01:52;67207.69;;;19.28;76.79
37132;BME280;23035;50.032;21.978;2022-07-29T05:06:57;67246.72;;;19.69;75.01
37132;BME280;23035;50.032;21.978;2022-07-29T05:12:01;67287.63;;;20.03;72.16
37132;BME280;23035;50.032;21.978;2022-07-29T05:17:06;67290.41;;;20.08;73.41
37132;BME280;23035;50.032;21.978;2022-07-29T05:22:11;67279.59;;;19.98;70.63
37132;BME280;23035;50.032;21.978;2022-07-29T05:27:15;67223.88;;;19.43;73.75
37132;BME280;23035;50.032;21.978;2022-07-29T05:32:19;67306.09;;;20.25;72.17
37132;BME280;23035;50.032;21.978;2022-07-29T05:37:24;67382.88;;;20.98;68.96
37132;BME280;23035;50.032;21.978;2022-07-29T05:42:27;67425.03;;;21.37;66.75
37132;BME280;23035;50.032;21.978;2022-07-29T05:47:31;67438.44;;;21.45;65.83
37132;BME280;23035;50.032;21.978;2022-07-29T05:52:38;67340.72;;;20.58;69.61
37132;BME280;23035;50.032;21.978;2022-07-29T05:57:41;67341.66;;;20.54;71.59
37132;BME280;23035;50.032;21.978;2022-07-29T06:02:45;67427.69;;;21.37;67.80
37132;BME280;23035;50.032;21.978;2022-07-29T06:07:51;67403.28;;;21.12;66.43
37132;BME280;23035;50.032;21.978;2022-07-29T06:12:55;67362.28;;;20.76;69.46
37132;BME280;23035;50.032;21.978;2022-07-29T06:17:59;67347.81;;;20.67;67.84
37132;BME280;23035;50.032;21.978;2022-07-29T06:23:05;67392.59;;;21.07;66.80
37132;BME280;23035;50.032;21.978;2022-07-29T06:28:11;67441.25;;;21.53;65.57
37132;BME280;23035;50.032;21.978;2022-07-29T06:33:18;67473.03;;;21.77;62.60
37132;BME280;23035;50.032;21.978;2022-07-29T06:38:24;67501.25;;;22.07;61.50
37132;BME280;23035;50.032;21.978;2022-07-29T06:43:37;67493.09;;;21.99;60.77
37132;BME280;23035;50.032;21.978;2022-07-29T06:48:52;67520.72;;;22.25;62.93
37132;BME280;23035;50.032;21.978;2022-07-29T06:53:58;67559.72;;;22.64;59.24
37132;BME280;23035;50.032;21.978;2022-07-29T06:59:06;67521.81;;;22.26;61.61
37132;BME280;23035;50.032;21.978;2022-07-29T07:04:10;67476.34;;;21.83;63.65
37132;BME280;23035;50.032;21.978;2022-07-29T07:09:17;67438.97;;;21.45;65.46
37132;BME280;23035;50.032;21.978;2022-07-29T07:14:21;67435.81;;;21.45;66.47
37132;BME280;23035;50.032;21.978;2022-07-29T07:19:25;67486.69;;;21.95;65.35
37132;BME280;23035;50.032;21.978;2022-07-29T07:24:31;67557.44;;;22.57;62.04
37132;BME280;23035;50.032;21.978;2022-07-29T07:29:35;67580.84;;;22.84;61.45
37132;BME280;23035;50.032;21.978;2022-07-29T07:34:39;67525.16;;;22.34;67.11
37132;BME280;23035;50.032;21.978;2022-07-29T07:39:45;67574.81;;;22.76;63.59
37132;BME280;23035;50.032;21.978;2022-07-29T07:44:49;67523.41;;;22.27;66.43
37132;BME280;23035;50.032;21.978;2022-07-29T07:50:13;67580.22;;;22.81;65.55
37132;BME280;23035;50.032;21.978;2022-07-29T07:55:22;67651.16;;;23.47;62.63
37132;BME280;23035;50.032;21.978;2022-07-29T08:00:25;67725.97;;;24.20;59.84
37132;BME280;23035;50.032;21.978;2022-07-29T08:05:30;67708.06;;;24.03;61.20
37132;BME280;23035;50.032;21.978;2022-07-29T08:10:37;67751.38;;;24.42;60.00
37132;BME280;23035;50.032;21.978;2022-07-29T08:15:59;67734.00;;;24.25;60.17
37132;BME280;23035;50.032;21.978;2022-07-29T08:21:04;67877.13;;;25.60;57.94
37132;BME280;23035;50.032;21.978;2022-07-29T08:26:11;67833.25;;;25.21;57.90
37132;BME280;23035;50.032;21.978;2022-07-29T08:31:16;67952.59;;;26.36;55.26
37132;BME280;23035;50.032;21.978;2022-07-29T08:36:20;67840.84;;;25.28;57.59
37132;BME280;23035;50.032;21.978;2022-07-29T08:41:26;67905.34;;;25.86;56.94
37132;BME280;23035;50.032;21.978;2022-07-29T08:46:30;67941.13;;;26.20;54.91
37132;BME280;23035;50.032;21.978;2022-07-29T08:51:36;67899.34;;;25.81;58.18
37132;BME280;23035;50.032;21.978;2022-07-29T08:56:52;67859.81;;;25.46;57.40
37132;BME280;23035;50.032;21.978;2022-07-29T09:01:58;67992.16;;;26.70;54.51
37132;BME280;23035;50.032;21.978;2022-07-29T09:07:05;68004.75;;;26.87;53.92
37132;BME280;23035;50.032;21.978;2022-07-29T09:12:11;68036.09;;;27.09;51.59
37132;BME280;23035;50.032;21.978;2022-07-29T09:17:41;67966.06;;;26.43;54.69
37132;BME280;23035;50.032;21.978;2022-07-29T09:22:46;67902.66;;;25.86;56.10
37132;BME280;23035;50.032;21.978;2022-07-29T09:27:53;67942.75;;;26.21;56.21
37132;BME280;23035;50.032;21.978;2022-07-29T09:32:59;67999.75;;;26.77;53.96
37132;BME280;23035;50.032;21.978;2022-07-29T09:38:10;67947.72;;;26.31;54.48
37132;BME280;23035;50.032;21.978;2022-07-29T09:43:16;68004.63;;;26.82;54.93
37132;BME280;23035;50.032;21.978;2022-07-29T09:48:22;68009.03;;;26.88;53.96
37132;BME280;23035;50.032;21.978;2022-07-29T09:53:31;67984.63;;;26.66;54.46
37132;BME280;23035;50.032;21.978;2022-07-29T09:58:37;67959.63;;;26.40;54.14
37132;BME280;23035;50.032;21.978;2022-07-29T10:03:50;68032.34;;;27.08;53.85
37132;BME280;23035;50.032;21.978;2022-07-29T10:09:06;68092.03;;;27.64;53.38
37132;BME280;23035;50.032;21.978;2022-07-29T10:14:13;68020.91;;;26.97;54.69
37132;BME280;23035;50.032;21.978;2022-07-29T10:19:18;68058.28;;;27.27;52.53
37132;BME280;23035;50.032;21.978;2022-07-29T10:24:22;68156.66;;;28.24;51.73
37132;BME280;23035;50.032;21.978;2022-07-29T10:29:29;68165.41;;;28.35;50.92
37132;BME280;23035;50.032;21.978;2022-07-29T10:34:43;68199.53;;;28.62;50.65
37132;BME280;23035;50.032;21.978;2022-07-29T10:39:58;68248.44;;;29.08;48.76
37132;BME280;23035;50.032;21.978;2022-07-29T10:45:29;68252.25;;;29.11;49.45
37132;BME280;23035;50.032;21.978;2022-07-29T10:50:55;68249.56;;;29.11;48.90
37132;BME280;23035;50.032;21.978;2022-07-29T10:56:02;68194.13;;;28.60;49.83
37132;BME280;23035;50.032;21.978;2022-07-29T11:01:28;68257.69;;;29.19;49.20
37132;BME280;23035;50.032;21.978;2022-07-29T11:07:07;68210.97;;;28.75;49.98
37132;BME280;23035;50.032;21.978;2022-07-29T11:18:09;68211.03;;;28.80;49.93
37132;BME280;23035;50.032;21.978;2022-07-29T11:23:21;68164.84;;;28.35;50.98
37132;BME280;23035;50.032;21.978;2022-07-29T11:28:27;68229.88;;;28.88;49.59
37132;BME280;23035;50.032;21.978;2022-07-29T11:33:34;68573.22;;;32.17;43.42
37132;BME280;23035;50.032;21.978;2022-07-29T11:39:25;68408.34;;;30.63;44.88
37132;BME280;23035;50.032;21.978;2022-07-29T11:44:53;68621.72;;;32.65;41.08
37132;BME280;23035;50.032;21.978;2022-07-29T11:50:02;68545.47;;;31.91;42.38
37132;BME280;23035;50.032;21.978;2022-07-29T11:55:14;68690.75;;;33.22;39.59
37132;BME280;23035;50.032;21.978;2022-07-29T12:00:27;68709.31;;;33.42;37.89
37132;BME280;23035;50.032;21.978;2022-07-29T12:05:39;68713.69;;;33.46;38.52
37132;BME280;23035;50.032;21.978;2022-07-29T12:10:53;68560.66;;;32.03;41.37
37132;BME280;23035;50.032;21.978;2022-07-29T12:15:57;68716.94;;;33.46;39.05
37132;BME280;23035;50.032;21.978;2022-07-29T12:21:05;68817.78;;;34.43;36.65
37132;BME280;23035;50.032;21.978;2022-07-29T12:26:13;68751.78;;;33.79;38.33
37132;BME280;23035;50.032;21.978;2022-07-29T12:31:27;68741.97;;;33.70;38.26
37132;BME280;23035;50.032;21.978;2022-07-29T12:36:47;68879.38;;;35.00;36.82
37132;BME280;23035;50.032;21.978;2022-07-29T12:41:51;68883.75;;;35.04;35.80
37132;BME280;23035;50.032;21.978;2022-07-29T12:47:06;68844.47;;;34.68;35.91
37132;BME280;23035;50.032;21.978;2022-07-29T12:52:29;68816.16;;;34.44;36.85
37132;BME280;23035;50.032;21.978;2022-07-29T12:57:44;68948.69;;;35.70;35.44
37132;BME280;23035;50.032;21.978;2022-07-29T13:02:54;69000.44;;;36.13;34.40
37132;BME280;23035;50.032;21.978;2022-07-29T13:08:11;68932.81;;;35.50;35.50
37132;BME280;23035;50.032;21.978;2022-07-29T13:13:23;68726.19;;;33.55;36.24
37132;BME280;23035;50.032;21.978;2022-07-29T13:18:28;68851.56;;;34.74;34.92
37132;BME280;23035;50.032;21.978;2022-07-29T13:23:34;68737.09;;;33.67;37.43
37132;BME280;23035;50.032;21.978;2022-07-29T13:28:39;68654.84;;;32.91;38.33
37132;BME280;23035;50.032;21.978;2022-07-29T13:33:45;68773.66;;;34.04;35.94
37132;BME280;23035;50.032;21.978;2022-07-29T13:38:51;68842.84;;;34.66;36.16
37132;BME280;23035;50.032;21.978;2022-07-29T13:43:55;68864.09;;;34.86;35.47
37132;BME280;23035;50.032;21.978;2022-07-29T13:48:59;68886.47;;;35.07;34.69
37132;BME280;23035;50.032;21.978;2022-07-29T13:54:04;68843.94;;;34.67;35.64
37132;BME280;23035;50.032;21.978;2022-07-29T13:59:08;68895.72;;;35.16;34.92
37132;BME280;23035;50.032;21.978;2022-07-29T14:04:13;68933.91;;;35.51;34.42
37132;BME280;23035;50.032;21.978;2022-07-29T14:09:19;68914.88;;;35.39;34.00
37132;BME280;23035;50.032;21.978;2022-07-29T14:14:23;68850.50;;;34.78;34.54
37132;BME280;23035;50.032;21.978;2022-07-29T14:19:27;68840.66;;;34.62;35.19
37132;BME280;23035;50.032;21.978;2022-07-29T14:24:33;68870.69;;;34.97;34.46
37132;BME280;23035;50.032;21.978;2022-07-29T14:29:38;68791.56;;;34.16;35.98
37132;BME280;23035;50.032;21.978;2022-07-29T14:34:42;68840.09;;;34.61;35.33
37132;BME280;23035;50.032;21.978;2022-07-29T14:39:47;68780.13;;;34.05;35.86
37132;BME280;23035;50.032;21.978;2022-07-29T14:44:51;68871.13;;;34.88;35.38
37132;BME280;23035;50.032;21.978;2022-07-29T14:49:56;68951.34;;;35.68;33.80
37132;BME280;23035;50.032;21.978;2022-07-29T14:55:03;68924.09;;;35.42;33.84
37132;BME280;23035;50.032;21.978;2022-07-29T15:00:21;68831.88;;;34.51;35.65
37132;BME280;23035;50.032;21.978;2022-07-29T15:05:25;68783.97;;;34.11;35.22
37132;BME280;23035;50.032;21.978;2022-07-29T15:10:31;68648.81;;;32.82;37.86
37132;BME280;23035;50.032;21.978;2022-07-29T15:15:35;68696.25;;;33.29;37.40
37132;BME280;23035;50.032;21.978;2022-07-29T15:20:39;68743.69;;;33.76;37.01
37132;BME280;23035;50.032;21.978;2022-07-29T15:25:44;68770.34;;;33.99;36.77
37132;BME280;23035;50.032;21.978;2022-07-29T15:30:48;68746.38;;;33.76;36.26
37132;BME280;23035;50.032;21.978;2022-07-29T15:35:52;68705.50;;;33.35;36.82
37132;BME280;23035;50.032;21.978;2022-07-29T15:40:57;68779.06;;;34.07;36.98
37132;BME280;23035;50.032;21.978;2022-07-29T15:46:02;68718.03;;;33.50;36.89
37132;BME280;23035;50.032;21.978;2022-07-29T15:51:23;68664.13;;;32.99;37.55
37132;BME280;23035;50.032;21.978;2022-07-29T15:56:29;68771.97;;;34.00;36.53
37132;BME280;23035;50.032;21.978;2022-07-29T16:01:32;68668.44;;;33.01;38.20
37132;BME280;23035;50.032;21.978;2022-07-29T16:06:44;68528.53;;;31.73;41.08
37132;BME280;23035;50.032;21.978;2022-07-29T16:11:50;68369.13;;;30.21;44.36
37132;BME280;23035;50.032;21.978;2022-07-29T16:16:55;68320.13;;;29.73;45.93
37132;BME280;23035;50.032;21.978;2022-07-29T16:21:59;68269.00;;;29.22;47.58
37132;BME280;23035;50.032;21.978;2022-07-29T16:27:05;68158.25;;;28.23;50.28
37132;BME280;23035;50.032;21.978;2022-07-29T16:32:09;68101.13;;;27.65;51.95
37132;BME280;23035;50.032;21.978;2022-07-29T16:37:13;68089.91;;;27.64;52.87
37132;BME280;23035;50.032;21.978;2022-07-29T16:42:18;68112.63;;;27.81;53.54
37132;BME280;23035;50.032;21.978;2022-07-29T16:47:42;68089.22;;;27.56;55.22
37132;BME280;23035;50.032;21.978;2022-07-29T16:52:46;68081.19;;;27.54;56.11
37132;BME280;23035;50.032;21.978;2022-07-29T16:57:51;68055.06;;;27.27;57.23
37132;BME280;23035;50.032;21.978;2022-07-29T17:02:55;68052.38;;;27.24;57.08
37132;BME280;23035;50.032;21.978;2022-07-29T17:08:01;68023.09;;;26.99;58.03
37132;BME280;23035;50.032;21.978;2022-07-29T17:13:06;68015.91;;;26.85;59.00
37132;BME280;23035;50.032;21.978;2022-07-29T17:18:11;68012.19;;;26.86;59.73
37132;BME280;23035;50.032;21.978;2022-07-29T17:23:15;68059.91;;;27.29;58.54
37132;BME280;23035;50.032;21.978;2022-07-29T17:28:20;68058.81;;;27.28;59.43
37132;BME280;23035;50.032;21.978;2022-07-29T17:33:24;68038.28;;;27.13;59.36
37132;BME280;23035;50.032;21.978;2022-07-29T17:38:27;67961.69;;;26.37;62.29
37132;BME280;23035;50.032;21.978;2022-07-29T17:43:33;67967.66;;;26.42;62.34
37132;BME280;23035;50.032;21.978;2022-07-29T17:48:40;67967.13;;;26.42;63.35
37132;BME280;23035;50.032;21.978;2022-07-29T17:53:44;67991.44;;;26.59;62.80
37132;BME280;23035;50.032;21.978;2022-07-29T17:58:50;67932.94;;;26.10;64.94
37132;BME280;23035;50.032;21.978;2022-07-29T18:03:54;67909.66;;;25.90;66.12
37132;BME280;23035;50.032;21.978;2022-07-29T18:09:01;67909.66;;;25.90;66.98
37132;BME280;23035;50.032;21.978;2022-07-29T18:14:09;67860.25;;;25.41;69.46
37132;BME280;23035;50.032;21.978;2022-07-29T18:19:13;67879.72;;;25.57;69.49
37132;BME280;23035;50.032;21.978;2022-07-29T18:24:17;67853.28;;;25.37;70.61
37132;BME280;23035;50.032;21.978;2022-07-29T18:29:23;67846.72;;;25.29;70.65
37132;BME280;23035;50.032;21.978;2022-07-29T18:34:26;67803.44;;;24.93;73.25
37132;BME280;23035;50.032;21.978;2022-07-29T18:39:30;67848.88;;;25.31;72.31
37132;BME280;23035;50.032;21.978;2022-07-29T18:44:35;67848.88;;;25.31;72.06
37132;BME280;23035;50.032;21.978;2022-07-29T18:49:50;67819.59;;;25.03;73.86
37132;BME280;23035;50.032;21.978;2022-07-29T18:54:54;67817.50;;;25.04;73.89
37132;BME280;23035;50.032;21.978;2022-07-29T18:59:59;67838.09;;;25.23;72.41
37132;BME280;23035;50.032;21.978;2022-07-29T19:05:03;67837.44;;;25.17;73.13
37132;BME280;23035;50.032;21.978;2022-07-29T19:10:07;67836.41;;;25.19;73.88
37132;BME280;23035;50.032;21.978;2022-07-29T19:15:14;67847.78;;;25.30;73.54
37132;BME280;23035;50.032;21.978;2022-07-29T19:20:21;67857.66;;;25.44;73.38
37132;BME280;23035;50.032;21.978;2022-07-29T19:25:25;67860.22;;;25.39;73.46
37132;BME280;23035;50.032;21.978;2022-07-29T19:30:32;67882.53;;;25.65;72.07
37132;BME280;23035;50.032;21.978;2022-07-29T19:35:36;67858.09;;;25.39;73.35
37132;BME280;23035;50.032;21.978;2022-07-29T19:40:39;67872.28;;;25.58;73.06
37132;BME280;23035;50.032;21.978;2022-07-29T19:45:45;67902.56;;;25.81;71.31
37132;BME280;23035;50.032;21.978;2022-07-29T19:50:48;67875.44;;;25.56;72.14
37132;BME280;23035;50.032;21.978;2022-07-29T19:55:52;67818.03;;;25.04;75.66
37132;BME280;23035;50.032;21.978;2022-07-29T20:00:58;67857.56;;;25.39;72.67
37132;BME280;23035;50.032;21.978;2022-07-29T20:06:02;67815.25;;;24.99;74.92
37132;BME280;23035;50.032;21.978;2022-07-29T20:11:05;67788.69;;;24.74;76.86
37132;BME280;23035;50.032;21.978;2022-07-29T20:16:10;67820.63;;;25.02;76.00
37132;BME280;23035;50.032;21.978;2022-07-29T20:21:14;67809.34;;;24.96;78.41
37132;BME280;23035;50.032;21.978;2022-07-29T20:26:19;67695.50;;;23.87;82.97
37132;BME280;23035;50.032;21.978;2022-07-29T20:31:24;67728.66;;;24.23;84.01
37132;BME280;23035;50.032;21.978;2022-07-29T20:36:29;67794.59;;;24.77;80.36
37132;BME280;23035;50.032;21.978;2022-07-29T20:41:33;67755.06;;;24.40;81.50
37132;BME280;23035;50.032;21.978;2022-07-29T20:46:38;67823.97;;;25.07;78.43
37132;BME280;23035;50.032;21.978;2022-07-29T20:51:42;67803.88;;;24.88;79.22
37132;BME280;23035;50.032;21.978;2022-07-29T20:56:46;67815.88;;;25.02;78.40
37132;BME280;23035;50.032;21.978;2022-07-29T21:01:51;67785.56;;;24.76;77.61
37132;BME280;23035;50.032;21.978;2022-07-29T21:06:57;67749.75;;;24.40;79.80
37132;BME280;23035;50.032;21.978;2022-07-29T21:12:01;67738.97;;;24.33;80.58
37132;BME280;23035;50.032;21.978;2022-07-29T21:17:08;67749.16;;;24.37;80.44
37132;BME280;23035;50.032;21.978;2022-07-29T21:22:12;67686.31;;;23.78;84.04
37132;BME280;23035;50.032;21.978;2022-07-29T21:27:16;67701.47;;;23.92;83.73
37132;BME280;23035;50.032;21.978;2022-07-29T21:32:41;67769.19;;;24.56;80.10
37132;BME280;23035;50.032;21.978;2022-07-29T21:37:44;67689.03;;;23.81;84.83
37132;BME280;23035;50.032;21.978;2022-07-29T21:42:48;67667.38;;;23.60;87.62
37132;BME280;23035;50.032;21.978;2022-07-29T21:47:53;67709.06;;;23.99;86.74
37132;BME280;23035;50.032;21.978;2022-07-29T21:53:00;67759.44;;;24.47;82.09
37132;BME280;23035;50.032;21.978;2022-07-29T21:58:05;67770.88;;;24.60;81.56
37132;BME280;23035;50.032;21.978;2022-07-29T22:03:11;67781.59;;;24.65;80.74
37132;BME280;23035;50.032;21.978;2022-07-29T22:08:15;67786.09;;;24.77;81.18
37132;BME280;23035;50.032;21.978;2022-07-29T22:13:18;67781.09;;;24.67;82.36
37132;BME280;23035;50.032;21.978;2022-07-29T22:18:24;67703.59;;;23.92;87.17
37132;BME280;23035;50.032;21.978;2022-07-29T22:23:27;67758.97;;;24.49;83.74
37132;BME280;23035;50.032;21.978;2022-07-29T22:28:31;67771.91;;;24.58;83.52
37132;BME280;23035;50.032;21.978;2022-07-29T22:33:37;67776.81;;;24.66;82.82
37132;BME280;23035;50.032;21.978;2022-07-29T22:38:40;67797.88;;;24.80;83.75
37132;BME280;23035;50.032;21.978;2022-07-29T22:43:44;67643.63;;;23.43;94.75
37132;BME280;23035;50.032;21.978;2022-07-29T22:48:49;67576.97;;;22.78;100.00
37132;BME280;23035;50.032;21.978;2022-07-29T22:53:53;67565.56;;;22.65;100.00
37132;BME280;23035;50.032;21.978;2022-07-29T22:58:57;67480.13;;;21.87;100.00
37132;BME280;23035;50.032;21.978;2022-07-29T23:04:02;67500.16;;;22.05;100.00
37132;BME280;23035;50.032;21.978;2022-07-29T23:09:05;67553.66;;;22.53;100.00
37132;BME280;23035;50.032;21.978;2022-07-29T23:14:09;67588.91;;;22.89;100.00
37132;BME280;23035;50.032;21.978;2022-07-29T23:19:14;67596.44;;;22.94;100.00
37132;BME280;23035;50.032;21.978;2022-07-29T23:24:18;67592.03;;;22.87;100.00
37132;BME280;23035;50.032;21.978;2022-07-29T23:29:22;67639.72;;;23.34;100.00
37132;BME280;23035;50.032;21.978;2022-07-29T23:34:27;67632.69;;;23.28;100.00
37132;BME280;23035;50.032;21.978;2022-07-29T23:39:30;67593.25;;;22.93;100.00
37132;BME280;23035;50.032;21.978;2022-07-29T23:44:34;67628.38;;;23.24;100.00
37132;BME280;23035;50.032;21.978;2022-07-29T23:49:39;67624.69;;;23.25;100.00
37132;BME280;23035;50.032;21.978;2022-07-29T23:54:43;67626.75;;;23.22;100.00
37132;BME280;23035;50.032;21.978;2022-07-29T23:59:47;67621.31;;;23.17;100.00
